sensor_id;sensor_type;location;lat;lon;timestamp;P1;durP1;ratioP1;P2;durP2;ratioP2
67162;SDS011;54092;53.088;8.850;2022-12-29T00:01:16;10.85;;;7.15;;
67162;SDS011;54092;53.088;8.850;2022-12-29T00:03:42;8.05;;;4.82;;
67162;SDS011;54092;53.088;8.850;2022-12-29T00:06:10;13.27;;;7.30;;
67162;SDS011;54092;53.088;8.850;2022-12-29T00:08:36;11.18;;;6.90;;
67162;SDS011;54092;53.088;8.850;2022-12-29T00:11:08;9.02;;;5.18;;
67162;SDS011;54092;53.088;8.850;2022-12-29T00:13:35;10.45;;;6.65;;
67162;SDS011;54092;53.088;8.850;2022-12-29T00:16:20;10.55;;;6.50;;
67162;SDS011;54092;53.088;8.850;2022-12-29T00:18:45;14.10;;;6.65;;
67162;SDS011;54092;53.088;8.850;2022-12-29T00:21:15;10.05;;;6.32;;
67162;SDS011;54092;53.088;8.850;2022-12-29T00:24:03;11.73;;;6.82;;
67162;SDS011;54092;53.088;8.850;2022-12-29T00:27:10;11.48;;;6.50;;
67162;SDS011;54092;53.088;8.850;2022-12-29T00:29:54;15.07;;;7.43;;
67162;SDS011;54092;53.088;8.850;2022-12-29T00:32:38;11.35;;;7.13;;
67162;SDS011;54092;53.088;8.850;2022-12-29T00:37:51;11.85;;;7.20;;
67162;SDS011;54092;53.088;8.850;2022-12-29T00:40:37;12.38;;;7.78;;
67162;SDS011;54092;53.088;8.850;2022-12-29T00:43:21;13.82;;;7.88;;
67162;SDS011;54092;53.088;8.850;2022-12-29T00:46:04;13.05;;;7.82;;
67162;SDS011;54092;53.088;8.850;2022-12-29T00:48:30;13.73;;;8.23;;
67162;SDS011;54092;53.088;8.850;2022-12-29T00:51:28;13.02;;;7.13;;
67162;SDS011;54092;53.088;8.850;2022-12-29T00:53:53;12.85;;;8.02;;
67162;SDS011;54092;53.088;8.850;2022-12-29T00:56:19;14.32;;;8.07;;
67162;SDS011;54092;53.088;8.850;2022-12-29T00:58:44;14.10;;;8.45;;
67162;SDS011;54092;53.088;8.850;2022-12-29T01:01:10;14.63;;;8.63;;
67162;SDS011;54092;53.088;8.850;2022-12-29T01:03:36;15.57;;;8.73;;
67162;SDS011;54092;53.088;8.850;2022-12-29T01:06:02;17.58;;;9.32;;
67162;SDS011;54092;53.088;8.850;2022-12-29T01:08:30;15.43;;;9.50;;
67162;SDS011;54092;53.088;8.850;2022-12-29T01:10:59;17.35;;;9.38;;
67162;SDS011;54092;53.088;8.850;2022-12-29T01:13:26;13.30;;;7.35;;
67162;SDS011;54092;53.088;8.850;2022-12-29T01:15:52;16.30;;;8.30;;
67162;SDS011;54092;53.088;8.850;2022-12-29T01:18:18;16.00;;;8.82;;
67162;SDS011;54092;53.088;8.850;2022-12-29T01:20:45;13.00;;;8.15;;
67162;SDS011;54092;53.088;8.850;2022-12-29T01:23:10;13.15;;;7.35;;
67162;SDS011;54092;53.088;8.850;2022-12-29T01:25:36;10.45;;;5.35;;
67162;SDS011;54092;53.088;8.850;2022-12-29T01:28:01;13.50;;;7.68;;
67162;SDS011;54092;53.088;8.850;2022-12-29T01:30:27;14.75;;;6.65;;
67162;SDS011;54092;53.088;8.850;2022-12-29T01:32:52;11.43;;;6.82;;
67162;SDS011;54092;53.088;8.850;2022-12-29T01:35:18;12.10;;;7.60;;
67162;SDS011;54092;53.088;8.850;2022-12-29T01:37:43;11.43;;;7.47;;
67162;SDS011;54092;53.088;8.850;2022-12-29T01:40:09;11.95;;;7.22;;
67162;SDS011;54092;53.088;8.850;2022-12-29T01:42:35;10.55;;;6.53;;
67162;SDS011;54092;53.088;8.850;2022-12-29T01:45:10;13.32;;;7.70;;
67162;SDS011;54092;53.088;8.850;2022-12-29T01:47:42;9.57;;;6.05;;
67162;SDS011;54092;53.088;8.850;2022-12-29T01:53:03;13.10;;;7.85;;
67162;SDS011;54092;53.088;8.850;2022-12-29T01:55:35;13.00;;;7.25;;
67162;SDS011;54092;53.088;8.850;2022-12-29T01:58:09;10.77;;;6.75;;
67162;SDS011;54092;53.088;8.850;2022-12-29T02:00:38;11.70;;;6.30;;
67162;SDS011;54092;53.088;8.850;2022-12-29T02:03:04;13.20;;;7.32;;
67162;SDS011;54092;53.088;8.850;2022-12-29T02:07:56;11.65;;;8.07;;
67162;SDS011;54092;53.088;8.850;2022-12-29T02:10:23;10.70;;;7.47;;
67162;SDS011;54092;53.088;8.850;2022-12-29T02:12:50;10.38;;;7.07;;
67162;SDS011;54092;53.088;8.850;2022-12-29T02:15:17;12.68;;;8.25;;
67162;SDS011;54092;53.088;8.850;2022-12-29T02:20:37;10.57;;;7.00;;
67162;SDS011;54092;53.088;8.850;2022-12-29T02:31:39;13.35;;;7.53;;
67162;SDS011;54092;53.088;8.850;2022-12-29T02:36:58;10.35;;;6.75;;
67162;SDS011;54092;53.088;8.850;2022-12-29T02:42:49;10.70;;;6.53;;
67162;SDS011;54092;53.088;8.850;2022-12-29T02:45:17;12.32;;;7.30;;
67162;SDS011;54092;53.088;8.850;2022-12-29T02:50:23;12.18;;;7.45;;
67162;SDS011;54092;53.088;8.850;2022-12-29T02:53:04;11.00;;;7.63;;
67162;SDS011;54092;53.088;8.850;2022-12-29T02:55:32;13.75;;;6.70;;
67162;SDS011;54092;53.088;8.850;2022-12-29T03:03:59;10.43;;;6.75;;
67162;SDS011;54092;53.088;8.850;2022-12-29T03:07:01;10.20;;;7.25;;
67162;SDS011;54092;53.088;8.850;2022-12-29T03:09:35;9.80;;;7.07;;
67162;SDS011;54092;53.088;8.850;2022-12-29T03:12:29;14.27;;;7.30;;
67162;SDS011;54092;53.088;8.850;2022-12-29T03:15:21;10.00;;;6.45;;
67162;SDS011;54092;53.088;8.850;2022-12-29T03:18:18;10.73;;;5.95;;
67162;SDS011;54092;53.088;8.850;2022-12-29T03:20:52;9.23;;;6.18;;
67162;SDS011;54092;53.088;8.850;2022-12-29T03:23:21;7.30;;;4.95;;
67162;SDS011;54092;53.088;8.850;2022-12-29T03:25:51;9.73;;;5.47;;
67162;SDS011;54092;53.088;8.850;2022-12-29T03:28:54;6.25;;;4.53;;
67162;SDS011;54092;53.088;8.850;2022-12-29T03:31:16;9.13;;;4.65;;
67162;SDS011;54092;53.088;8.850;2022-12-29T03:33:43;10.10;;;5.53;;
67162;SDS011;54092;53.088;8.850;2022-12-29T03:36:12;9.98;;;4.35;;
67162;SDS011;54092;53.088;8.850;2022-12-29T03:38:47;7.07;;;4.38;;
67162;SDS011;54092;53.088;8.850;2022-12-29T03:41:36;6.78;;;4.50;;
67162;SDS011;54092;53.088;8.850;2022-12-29T03:44:05;7.32;;;4.57;;
67162;SDS011;54092;53.088;8.850;2022-12-29T03:46:31;8.02;;;4.43;;
67162;SDS011;54092;53.088;8.850;2022-12-29T03:48:57;7.05;;;4.22;;
67162;SDS011;54092;53.088;8.850;2022-12-29T03:51:22;6.28;;;3.97;;
67162;SDS011;54092;53.088;8.850;2022-12-29T03:53:48;6.63;;;4.13;;
67162;SDS011;54092;53.088;8.850;2022-12-29T03:56:13;6.63;;;3.80;;
67162;SDS011;54092;53.088;8.850;2022-12-29T03:58:39;6.70;;;4.32;;
67162;SDS011;54092;53.088;8.850;2022-12-29T04:01:04;6.63;;;4.13;;
67162;SDS011;54092;53.088;8.850;2022-12-29T04:03:30;6.65;;;3.97;;
67162;SDS011;54092;53.088;8.850;2022-12-29T04:05:55;7.28;;;4.15;;
67162;SDS011;54092;53.088;8.850;2022-12-29T04:08:21;7.15;;;4.53;;
67162;SDS011;54092;53.088;8.850;2022-12-29T04:10:47;6.93;;;4.47;;
67162;SDS011;54092;53.088;8.850;2022-12-29T04:13:14;9.65;;;5.05;;
67162;SDS011;54092;53.088;8.850;2022-12-29T04:15:39;10.70;;;5.40;;
67162;SDS011;54092;53.088;8.850;2022-12-29T04:18:06;7.57;;;4.95;;
67162;SDS011;54092;53.088;8.850;2022-12-29T04:20:32;8.07;;;4.88;;
67162;SDS011;54092;53.088;8.850;2022-12-29T04:23:15;10.20;;;6.05;;
67162;SDS011;54092;53.088;8.850;2022-12-29T04:25:44;8.80;;;5.47;;
67162;SDS011;54092;53.088;8.850;2022-12-29T04:30:36;7.60;;;4.63;;
67162;SDS011;54092;53.088;8.850;2022-12-29T04:33:02;9.45;;;5.22;;
67162;SDS011;54092;53.088;8.850;2022-12-29T04:35:27;10.23;;;6.10;;
67162;SDS011;54092;53.088;8.850;2022-12-29T04:37:53;11.80;;;6.15;;
67162;SDS011;54092;53.088;8.850;2022-12-29T04:40:18;9.55;;;5.35;;
67162;SDS011;54092;53.088;8.850;2022-12-29T04:42:44;13.25;;;6.25;;
67162;SDS011;54092;53.088;8.850;2022-12-29T04:45:09;11.48;;;6.15;;
67162;SDS011;54092;53.088;8.850;2022-12-29T04:47:35;9.77;;;6.03;;
67162;SDS011;54092;53.088;8.850;2022-12-29T04:50:00;9.25;;;6.35;;
67162;SDS011;54092;53.088;8.850;2022-12-29T04:52:26;10.27;;;5.43;;
67162;SDS011;54092;53.088;8.850;2022-12-29T04:54:51;10.27;;;5.25;;
67162;SDS011;54092;53.088;8.850;2022-12-29T04:57:17;8.15;;;4.97;;
67162;SDS011;54092;53.088;8.850;2022-12-29T04:59:42;7.20;;;4.88;;
67162;SDS011;54092;53.088;8.850;2022-12-29T05:02:08;8.38;;;3.85;;
67162;SDS011;54092;53.088;8.850;2022-12-29T05:04:33;8.25;;;4.85;;
67162;SDS011;54092;53.088;8.850;2022-12-29T05:06:59;7.97;;;4.60;;
67162;SDS011;54092;53.088;8.850;2022-12-29T05:09:24;7.43;;;4.72;;
67162;SDS011;54092;53.088;8.850;2022-12-29T05:11:50;10.40;;;4.35;;
67162;SDS011;54092;53.088;8.850;2022-12-29T05:14:15;8.65;;;4.93;;
67162;SDS011;54092;53.088;8.850;2022-12-29T05:16:41;8.68;;;4.88;;
67162;SDS011;54092;53.088;8.850;2022-12-29T05:19:06;10.90;;;4.95;;
67162;SDS011;54092;53.088;8.850;2022-12-29T05:21:32;8.13;;;4.43;;
67162;SDS011;54092;53.088;8.850;2022-12-29T05:23:57;6.90;;;3.85;;
67162;SDS011;54092;53.088;8.850;2022-12-29T05:26:23;9.55;;;3.95;;
67162;SDS011;54092;53.088;8.850;2022-12-29T05:28:48;5.97;;;3.05;;
67162;SDS011;54092;53.088;8.850;2022-12-29T05:31:14;4.63;;;2.70;;
67162;SDS011;54092;53.088;8.850;2022-12-29T05:33:39;4.30;;;2.50;;
67162;SDS011;54092;53.088;8.850;2022-12-29T05:36:05;6.72;;;2.95;;
67162;SDS011;54092;53.088;8.850;2022-12-29T05:38:32;4.03;;;2.15;;
67162;SDS011;54092;53.088;8.850;2022-12-29T05:40:57;5.78;;;2.78;;
67162;SDS011;54092;53.088;8.850;2022-12-29T05:43:23;4.25;;;2.50;;
67162;SDS011;54092;53.088;8.850;2022-12-29T05:45:49;5.90;;;2.95;;
67162;SDS011;54092;53.088;8.850;2022-12-29T05:48:14;6.05;;;3.70;;
67162;SDS011;54092;53.088;8.850;2022-12-29T05:50:40;7.30;;;4.20;;
67162;SDS011;54092;53.088;8.850;2022-12-29T05:53:06;10.90;;;4.90;;
67162;SDS011;54092;53.088;8.850;2022-12-29T05:55:31;8.98;;;5.13;;
67162;SDS011;54092;53.088;8.850;2022-12-29T05:57:57;9.38;;;5.47;;
67162;SDS011;54092;53.088;8.850;2022-12-29T06:00:22;10.27;;;5.75;;
67162;SDS011;54092;53.088;8.850;2022-12-29T06:02:48;9.73;;;5.30;;
67162;SDS011;54092;53.088;8.850;2022-12-29T06:05:13;8.15;;;5.45;;
67162;SDS011;54092;53.088;8.850;2022-12-29T06:07:39;11.45;;;6.13;;
67162;SDS011;54092;53.088;8.850;2022-12-29T06:10:05;9.15;;;5.03;;
67162;SDS011;54092;53.088;8.850;2022-12-29T06:12:31;9.57;;;4.70;;
67162;SDS011;54092;53.088;8.850;2022-12-29T06:14:56;11.32;;;4.32;;
67162;SDS011;54092;53.088;8.850;2022-12-29T06:17:22;7.85;;;4.13;;
67162;SDS011;54092;53.088;8.850;2022-12-29T06:19:47;9.10;;;4.72;;
67162;SDS011;54092;53.088;8.850;2022-12-29T06:22:13;9.15;;;4.13;;
67162;SDS011;54092;53.088;8.850;2022-12-29T06:24:38;9.13;;;4.90;;
67162;SDS011;54092;53.088;8.850;2022-12-29T06:27:04;9.35;;;4.32;;
67162;SDS011;54092;53.088;8.850;2022-12-29T06:29:30;8.98;;;4.50;;
67162;SDS011;54092;53.088;8.850;2022-12-29T06:31:55;8.85;;;5.25;;
67162;SDS011;54092;53.088;8.850;2022-12-29T06:34:23;10.60;;;4.55;;
67162;SDS011;54092;53.088;8.850;2022-12-29T06:36:49;8.85;;;4.50;;
67162;SDS011;54092;53.088;8.850;2022-12-29T06:39:14;7.47;;;4.72;;
67162;SDS011;54092;53.088;8.850;2022-12-29T06:41:40;10.30;;;4.10;;
67162;SDS011;54092;53.088;8.850;2022-12-29T06:44:05;6.03;;;3.95;;
67162;SDS011;54092;53.088;8.850;2022-12-29T06:46:31;8.40;;;4.50;;
67162;SDS011;54092;53.088;8.850;2022-12-29T06:48:56;7.50;;;4.10;;
67162;SDS011;54092;53.088;8.850;2022-12-29T06:51:22;9.93;;;4.20;;
67162;SDS011;54092;53.088;8.850;2022-12-29T06:53:47;6.97;;;3.95;;
67162;SDS011;54092;53.088;8.850;2022-12-29T06:56:13;8.20;;;4.43;;
67162;SDS011;54092;53.088;8.850;2022-12-29T06:58:38;13.85;;;4.70;;
67162;SDS011;54092;53.088;8.850;2022-12-29T07:01:04;8.90;;;4.10;;
67162;SDS011;54092;53.088;8.850;2022-12-29T07:03:29;10.00;;;4.90;;
67162;SDS011;54092;53.088;8.850;2022-12-29T07:05:55;9.25;;;5.28;;
67162;SDS011;54092;53.088;8.850;2022-12-29T07:08:22;12.18;;;5.47;;
67162;SDS011;54092;53.088;8.850;2022-12-29T07:10:48;9.85;;;4.72;;
67162;SDS011;54092;53.088;8.850;2022-12-29T07:13:14;10.02;;;5.45;;
67162;SDS011;54092;53.088;8.850;2022-12-29T07:15:39;9.75;;;5.00;;
67162;SDS011;54092;53.088;8.850;2022-12-29T07:18:05;11.77;;;4.97;;
67162;SDS011;54092;53.088;8.850;2022-12-29T07:20:31;8.32;;;4.68;;
67162;SDS011;54092;53.088;8.850;2022-12-29T07:22:57;8.30;;;3.85;;
67162;SDS011;54092;53.088;8.850;2022-12-29T07:25:22;6.35;;;2.92;;
67162;SDS011;54092;53.088;8.850;2022-12-29T07:27:48;8.32;;;3.65;;
67162;SDS011;54092;53.088;8.850;2022-12-29T07:30:14;7.57;;;3.20;;
67162;SDS011;54092;53.088;8.850;2022-12-29T07:32:40;7.65;;;3.20;;
67162;SDS011;54092;53.088;8.850;2022-12-29T07:35:06;6.65;;;3.10;;
67162;SDS011;54092;53.088;8.850;2022-12-29T07:37:31;8.35;;;3.45;;
67162;SDS011;54092;53.088;8.850;2022-12-29T07:39:57;6.28;;;2.80;;
67162;SDS011;54092;53.088;8.850;2022-12-29T07:42:22;6.13;;;2.78;;
67162;SDS011;54092;53.088;8.850;2022-12-29T07:44:48;5.15;;;2.60;;
67162;SDS011;54092;53.088;8.850;2022-12-29T07:47:13;5.85;;;2.72;;
67162;SDS011;54092;53.088;8.850;2022-12-29T07:49:39;8.20;;;2.70;;
67162;SDS011;54092;53.088;8.850;2022-12-29T07:52:04;5.13;;;2.35;;
67162;SDS011;54092;53.088;8.850;2022-12-29T07:54:30;6.35;;;2.47;;
67162;SDS011;54092;53.088;8.850;2022-12-29T07:56:55;5.40;;;2.45;;
67162;SDS011;54092;53.088;8.850;2022-12-29T07:59:22;4.82;;;2.00;;
67162;SDS011;54092;53.088;8.850;2022-12-29T08:01:47;5.72;;;2.03;;
67162;SDS011;54092;53.088;8.850;2022-12-29T08:04:13;5.80;;;2.30;;
67162;SDS011;54092;53.088;8.850;2022-12-29T08:06:38;6.25;;;1.70;;
67162;SDS011;54092;53.088;8.850;2022-12-29T08:09:04;3.42;;;1.88;;
67162;SDS011;54092;53.088;8.850;2022-12-29T08:11:29;7.85;;;1.95;;
67162;SDS011;54092;53.088;8.850;2022-12-29T08:13:55;13.63;;;2.28;;
67162;SDS011;54092;53.088;8.850;2022-12-29T08:16:20;6.43;;;1.90;;
67162;SDS011;54092;53.088;8.850;2022-12-29T08:18:46;8.48;;;2.33;;
67162;SDS011;54092;53.088;8.850;2022-12-29T08:21:11;5.40;;;1.70;;
67162;SDS011;54092;53.088;8.850;2022-12-29T08:23:37;7.00;;;2.03;;
67162;SDS011;54092;53.088;8.850;2022-12-29T08:26:04;7.45;;;1.75;;
67162;SDS011;54092;53.088;8.850;2022-12-29T08:28:30;6.22;;;2.35;;
67162;SDS011;54092;53.088;8.850;2022-12-29T08:31:00;5.82;;;1.90;;
67162;SDS011;54092;53.088;8.850;2022-12-29T08:33:27;5.50;;;1.63;;
67162;SDS011;54092;53.088;8.850;2022-12-29T08:35:52;2.22;;;1.27;;
67162;SDS011;54092;53.088;8.850;2022-12-29T08:38:23;9.52;;;1.95;;
67162;SDS011;54092;53.088;8.850;2022-12-29T08:40:48;13.88;;;2.00;;
67162;SDS011;54092;53.088;8.850;2022-12-29T08:43:15;3.35;;;1.50;;
67162;SDS011;54092;53.088;8.850;2022-12-29T08:45:41;4.30;;;1.77;;
67162;SDS011;54092;53.088;8.850;2022-12-29T08:48:06;5.32;;;2.05;;
67162;SDS011;54092;53.088;8.850;2022-12-29T08:50:32;3.70;;;1.75;;
67162;SDS011;54092;53.088;8.850;2022-12-29T08:52:57;5.53;;;1.80;;
67162;SDS011;54092;53.088;8.850;2022-12-29T08:55:23;10.82;;;2.15;;
67162;SDS011;54092;53.088;8.850;2022-12-29T08:57:48;6.18;;;1.90;;
67162;SDS011;54092;53.088;8.850;2022-12-29T09:00:14;6.03;;;1.95;;
67162;SDS011;54092;53.088;8.850;2022-12-29T09:02:40;4.45;;;1.92;;
67162;SDS011;54092;53.088;8.850;2022-12-29T09:05:05;5.15;;;1.58;;
67162;SDS011;54092;53.088;8.850;2022-12-29T09:07:31;5.55;;;1.98;;
67162;SDS011;54092;53.088;8.850;2022-12-29T09:09:56;5.93;;;1.55;;
67162;SDS011;54092;53.088;8.850;2022-12-29T09:12:22;10.98;;;2.25;;
67162;SDS011;54092;53.088;8.850;2022-12-29T09:14:48;4.78;;;1.90;;
67162;SDS011;54092;53.088;8.850;2022-12-29T09:17:13;4.78;;;2.10;;
67162;SDS011;54092;53.088;8.850;2022-12-29T09:19:57;4.97;;;1.85;;
67162;SDS011;54092;53.088;8.850;2022-12-29T09:22:23;4.93;;;1.73;;
67162;SDS011;54092;53.088;8.850;2022-12-29T09:24:48;11.90;;;2.58;;
67162;SDS011;54092;53.088;8.850;2022-12-29T09:27:14;4.28;;;2.00;;
67162;SDS011;54092;53.088;8.850;2022-12-29T09:29:39;7.35;;;2.00;;
67162;SDS011;54092;53.088;8.850;2022-12-29T09:32:05;4.45;;;2.03;;
67162;SDS011;54092;53.088;8.850;2022-12-29T09:34:30;6.80;;;1.90;;
67162;SDS011;54092;53.088;8.850;2022-12-29T09:36:56;5.68;;;2.08;;
67162;SDS011;54092;53.088;8.850;2022-12-29T09:39:22;6.13;;;2.10;;
67162;SDS011;54092;53.088;8.850;2022-12-29T09:41:52;7.00;;;1.75;;
67162;SDS011;54092;53.088;8.850;2022-12-29T09:47:08;2.50;;;1.35;;
67162;SDS011;54092;53.088;8.850;2022-12-29T09:49:43;3.45;;;1.55;;
67162;SDS011;54092;53.088;8.850;2022-12-29T09:52:15;5.43;;;1.50;;
67162;SDS011;54092;53.088;8.850;2022-12-29T09:57:40;6.82;;;1.60;;
67162;SDS011;54092;53.088;8.850;2022-12-29T10:03:06;6.85;;;2.20;;
67162;SDS011;54092;53.088;8.850;2022-12-29T10:05:52;8.38;;;1.85;;
67162;SDS011;54092;53.088;8.850;2022-12-29T10:08:44;5.35;;;1.60;;
67162;SDS011;54092;53.088;8.850;2022-12-29T10:11:33;7.63;;;1.58;;
67162;SDS011;54092;53.088;8.850;2022-12-29T10:25:19;6.85;;;1.60;;
67162;SDS011;54092;53.088;8.850;2022-12-29T10:27:48;8.02;;;1.92;;
67162;SDS011;54092;53.088;8.850;2022-12-29T10:30:15;3.40;;;1.40;;
67162;SDS011;54092;53.088;8.850;2022-12-29T10:32:44;7.40;;;1.58;;
67162;SDS011;54092;53.088;8.850;2022-12-29T10:35:24;4.85;;;1.10;;
67162;SDS011;54092;53.088;8.850;2022-12-29T10:38:15;3.78;;;1.33;;
67162;SDS011;54092;53.088;8.850;2022-12-29T10:41:15;7.47;;;1.35;;
67162;SDS011;54092;53.088;8.850;2022-12-29T10:43:50;1.05;;;0.80;;
67162;SDS011;54092;53.088;8.850;2022-12-29T10:46:20;6.20;;;1.48;;
67162;SDS011;54092;53.088;8.850;2022-12-29T10:48:49;1.27;;;0.75;;
67162;SDS011;54092;53.088;8.850;2022-12-29T10:51:36;3.28;;;1.33;;
67162;SDS011;54092;53.088;8.850;2022-12-29T10:54:04;5.40;;;1.27;;
67162;SDS011;54092;53.088;8.850;2022-12-29T10:56:48;2.58;;;1.20;;
67162;SDS011;54092;53.088;8.850;2022-12-29T10:59:19;3.78;;;1.05;;
67162;SDS011;54092;53.088;8.850;2022-12-29T11:04:22;3.80;;;1.65;;
67162;SDS011;54092;53.088;8.850;2022-12-29T11:06:51;8.80;;;1.92;;
67162;SDS011;54092;53.088;8.850;2022-12-29T11:09:20;7.22;;;1.70;;
67162;SDS011;54092;53.088;8.850;2022-12-29T11:11:54;9.00;;;1.67;;
67162;SDS011;54092;53.088;8.850;2022-12-29T11:14:21;11.40;;;2.22;;
67162;SDS011;54092;53.088;8.850;2022-12-29T11:16:59;10.57;;;2.28;;
67162;SDS011;54092;53.088;8.850;2022-12-29T11:19:28;5.47;;;2.72;;
67162;SDS011;54092;53.088;8.850;2022-12-29T11:21:56;12.25;;;1.60;;
67162;SDS011;54092;53.088;8.850;2022-12-29T11:24:48;5.32;;;1.77;;
67162;SDS011;54092;53.088;8.850;2022-12-29T11:29:42;7.93;;;1.65;;
67162;SDS011;54092;53.088;8.850;2022-12-29T11:32:27;6.57;;;2.15;;
67162;SDS011;54092;53.088;8.850;2022-12-29T11:34:56;8.38;;;1.83;;
67162;SDS011;54092;53.088;8.850;2022-12-29T11:42:36;8.38;;;2.53;;
67162;SDS011;54092;53.088;8.850;2022-12-29T11:45:18;9.47;;;2.33;;
67162;SDS011;54092;53.088;8.850;2022-12-29T11:47:49;6.35;;;1.70;;
67162;SDS011;54092;53.088;8.850;2022-12-29T11:50:35;9.68;;;2.53;;
67162;SDS011;54092;53.088;8.850;2022-12-29T11:53:15;6.07;;;1.80;;
67162;SDS011;54092;53.088;8.850;2022-12-29T11:55:50;5.40;;;1.50;;
67162;SDS011;54092;53.088;8.850;2022-12-29T11:58:27;12.00;;;2.03;;
67162;SDS011;54092;53.088;8.850;2022-12-29T12:00:59;7.68;;;2.33;;
67162;SDS011;54092;53.088;8.850;2022-12-29T12:03:39;5.65;;;1.50;;
67162;SDS011;54092;53.088;8.850;2022-12-29T12:06:13;6.15;;;1.88;;
67162;SDS011;54092;53.088;8.850;2022-12-29T12:08:45;2.50;;;1.25;;
67162;SDS011;54092;53.088;8.850;2022-12-29T12:11:16;5.63;;;1.60;;
67162;SDS011;54092;53.088;8.850;2022-12-29T12:14:11;8.63;;;1.90;;
67162;SDS011;54092;53.088;8.850;2022-12-29T12:16:46;4.65;;;1.52;;
67162;SDS011;54092;53.088;8.850;2022-12-29T12:19:41;10.82;;;1.98;;
67162;SDS011;54092;53.088;8.850;2022-12-29T12:22:08;7.15;;;1.77;;
67162;SDS011;54092;53.088;8.850;2022-12-29T12:24:41;9.82;;;2.53;;
67162;SDS011;54092;53.088;8.850;2022-12-29T12:27:24;6.85;;;1.40;;
67162;SDS011;54092;53.088;8.850;2022-12-29T12:30:04;11.43;;;2.75;;
67162;SDS011;54092;53.088;8.850;2022-12-29T12:32:45;3.50;;;1.52;;
67162;SDS011;54092;53.088;8.850;2022-12-29T12:35:49;9.23;;;2.20;;
67162;SDS011;54092;53.088;8.850;2022-12-29T12:41:12;5.53;;;1.48;;
67162;SDS011;54092;53.088;8.850;2022-12-29T12:43:39;6.75;;;1.77;;
67162;SDS011;54092;53.088;8.850;2022-12-29T12:49:06;6.80;;;2.08;;
67162;SDS011;54092;53.088;8.850;2022-12-29T12:52:00;8.10;;;1.63;;
67162;SDS011;54092;53.088;8.850;2022-12-29T12:57:38;9.35;;;1.75;;
67162;SDS011;54092;53.088;8.850;2022-12-29T13:00:12;4.40;;;1.10;;
67162;SDS011;54092;53.088;8.850;2022-12-29T13:02:54;6.80;;;2.00;;
67162;SDS011;54092;53.088;8.850;2022-12-29T13:05:45;5.35;;;1.67;;
67162;SDS011;54092;53.088;8.850;2022-12-29T13:11:51;3.10;;;1.35;;
67162;SDS011;54092;53.088;8.850;2022-12-29T13:14:32;3.45;;;1.30;;
67162;SDS011;54092;53.088;8.850;2022-12-29T13:19:36;5.53;;;1.73;;
67162;SDS011;54092;53.088;8.850;2022-12-29T13:22:14;6.20;;;1.75;;
67162;SDS011;54092;53.088;8.850;2022-12-29T13:24:45;8.00;;;1.95;;
67162;SDS011;54092;53.088;8.850;2022-12-29T13:27:23;3.42;;;1.10;;
67162;SDS011;54092;53.088;8.850;2022-12-29T13:30:05;3.28;;;1.38;;
67162;SDS011;54092;53.088;8.850;2022-12-29T13:32:47;2.95;;;1.63;;
67162;SDS011;54092;53.088;8.850;2022-12-29T13:38:24;5.40;;;1.50;;
67162;SDS011;54092;53.088;8.850;2022-12-29T13:41:06;5.25;;;1.63;;
67162;SDS011;54092;53.088;8.850;2022-12-29T13:43:37;8.43;;;1.80;;
67162;SDS011;54092;53.088;8.850;2022-12-29T13:46:27;5.90;;;1.80;;
67162;SDS011;54092;53.088;8.850;2022-12-29T13:48:54;5.38;;;1.55;;
67162;SDS011;54092;53.088;8.850;2022-12-29T13:51:29;7.45;;;1.58;;
67162;SDS011;54092;53.088;8.850;2022-12-29T13:54:05;5.03;;;1.60;;
67162;SDS011;54092;53.088;8.850;2022-12-29T13:59:23;4.68;;;1.83;;
67162;SDS011;54092;53.088;8.850;2022-12-29T14:02:17;5.55;;;1.60;;
67162;SDS011;54092;53.088;8.850;2022-12-29T14:05:05;8.48;;;1.80;;
67162;SDS011;54092;53.088;8.850;2022-12-29T14:07:58;5.45;;;2.03;;
67162;SDS011;54092;53.088;8.850;2022-12-29T14:10:26;7.50;;;1.98;;
67162;SDS011;54092;53.088;8.850;2022-12-29T14:13:04;5.10;;;1.75;;
67162;SDS011;54092;53.088;8.850;2022-12-29T14:15:37;12.25;;;2.30;;
67162;SDS011;54092;53.088;8.850;2022-12-29T14:18:22;3.50;;;1.40;;
67162;SDS011;54092;53.088;8.850;2022-12-29T14:28:30;8.73;;;2.00;;
67162;SDS011;54092;53.088;8.850;2022-12-29T14:30:59;6.57;;;2.10;;
67162;SDS011;54092;53.088;8.850;2022-12-29T14:33:27;10.75;;;2.50;;
67162;SDS011;54092;53.088;8.850;2022-12-29T14:35:55;7.43;;;1.83;;
67162;SDS011;54092;53.088;8.850;2022-12-29T14:38:23;2.72;;;1.90;;
67162;SDS011;54092;53.088;8.850;2022-12-29T14:40:50;7.23;;;2.10;;
67162;SDS011;54092;53.088;8.850;2022-12-29T14:43:19;6.78;;;2.65;;
67162;SDS011;54092;53.088;8.850;2022-12-29T14:45:57;6.50;;;2.50;;
67162;SDS011;54092;53.088;8.850;2022-12-29T14:48:30;4.93;;;1.77;;
67162;SDS011;54092;53.088;8.850;2022-12-29T14:51:17;7.60;;;2.20;;
67162;SDS011;54092;53.088;8.850;2022-12-29T14:53:55;4.95;;;1.85;;
67162;SDS011;54092;53.088;8.850;2022-12-29T14:56:24;10.48;;;2.33;;
67162;SDS011;54092;53.088;8.850;2022-12-29T14:58:52;4.18;;;1.58;;
67162;SDS011;54092;53.088;8.850;2022-12-29T15:01:24;7.72;;;2.58;;
67162;SDS011;54092;53.088;8.850;2022-12-29T15:03:58;6.47;;;2.42;;
67162;SDS011;54092;53.088;8.850;2022-12-29T15:06:29;10.55;;;2.40;;
67162;SDS011;54092;53.088;8.850;2022-12-29T15:14:03;8.77;;;2.20;;
67162;SDS011;54092;53.088;8.850;2022-12-29T15:16:48;7.68;;;2.47;;
67162;SDS011;54092;53.088;8.850;2022-12-29T15:19:21;8.02;;;2.38;;
67162;SDS011;54092;53.088;8.850;2022-12-29T15:21:47;11.20;;;2.72;;
67162;SDS011;54092;53.088;8.850;2022-12-29T15:24:13;8.10;;;2.55;;
67162;SDS011;54092;53.088;8.850;2022-12-29T15:26:40;5.90;;;2.10;;
67162;SDS011;54092;53.088;8.850;2022-12-29T15:31:56;7.85;;;2.13;;
67162;SDS011;54092;53.088;8.850;2022-12-29T15:34:34;4.50;;;1.85;;
67162;SDS011;54092;53.088;8.850;2022-12-29T15:37:05;6.63;;;2.33;;
67162;SDS011;54092;53.088;8.850;2022-12-29T15:39:31;14.57;;;2.67;;
67162;SDS011;54092;53.088;8.850;2022-12-29T15:42:00;6.22;;;2.00;;
67162;SDS011;54092;53.088;8.850;2022-12-29T15:44:37;11.63;;;2.40;;
67162;SDS011;54092;53.088;8.850;2022-12-29T15:47:05;10.50;;;2.63;;
67162;SDS011;54092;53.088;8.850;2022-12-29T15:49:39;8.15;;;1.92;;
67162;SDS011;54092;53.088;8.850;2022-12-29T15:52:08;4.05;;;2.03;;
67162;SDS011;54092;53.088;8.850;2022-12-29T15:54:34;14.48;;;2.70;;
67162;SDS011;54092;53.088;8.850;2022-12-29T15:57:01;8.30;;;2.15;;
67162;SDS011;54092;53.088;8.850;2022-12-29T15:59:28;7.20;;;2.58;;
67162;SDS011;54092;53.088;8.850;2022-12-29T16:01:56;12.95;;;4.63;;
67162;SDS011;54092;53.088;8.850;2022-12-29T16:04:24;11.02;;;4.10;;
67162;SDS011;54092;53.088;8.850;2022-12-29T16:12:13;12.07;;;5.53;;
67162;SDS011;54092;53.088;8.850;2022-12-29T16:14:47;12.20;;;3.30;;
67162;SDS011;54092;53.088;8.850;2022-12-29T16:17:27;14.43;;;6.38;;
67162;SDS011;54092;53.088;8.850;2022-12-29T16:19:59;16.77;;;7.40;;
67162;SDS011;54092;53.088;8.850;2022-12-29T16:22:29;14.18;;;4.80;;
67162;SDS011;54092;53.088;8.850;2022-12-29T16:25:06;16.35;;;8.57;;
67162;SDS011;54092;53.088;8.850;2022-12-29T16:27:41;12.18;;;4.72;;
67162;SDS011;54092;53.088;8.850;2022-12-29T16:30:18;17.10;;;7.05;;
67162;SDS011;54092;53.088;8.850;2022-12-29T16:32:49;18.92;;;8.93;;
67162;SDS011;54092;53.088;8.850;2022-12-29T16:37:44;15.50;;;9.73;;
67162;SDS011;54092;53.088;8.850;2022-12-29T16:40:23;13.10;;;4.10;;
67162;SDS011;54092;53.088;8.850;2022-12-29T16:42:56;13.95;;;4.90;;
67162;SDS011;54092;53.088;8.850;2022-12-29T16:48:21;18.67;;;9.65;;
67162;SDS011;54092;53.088;8.850;2022-12-29T16:53:20;33.08;;;19.20;;
67162;SDS011;54092;53.088;8.850;2022-12-29T16:55:50;17.08;;;7.78;;
67162;SDS011;54092;53.088;8.850;2022-12-29T16:58:22;22.38;;;11.90;;
67162;SDS011;54092;53.088;8.850;2022-12-29T17:00:52;16.65;;;7.78;;